KBGF

Details ICAO KBGF
Name WINCHESTER MUNI
Region United States
Timezone America/Chicago (UTC-6.0)
Plans Departing 0
Arriving 2
Stats Elevation 979 ft / 298 m (AMSL)
Location 35.177535° -86.066165°
Runways 1
Magnetic Variation 4.156° W
Sunrise 2017-12-15 12:46:55 UTC / 2017-12-15 06:46:55 Local
Sunset 2017-12-15 22:34:56 UTC / 2017-12-15 16:34:56 Local
Advertisement - Login to hide

Runways

ID Width Length Bearing (true) Bearing (mag) Surface Threshold Offset Overrun Length
18 75 ft / 23 m 5,015 ft / 1,528 m 181.69° 185.85° Asphalt 0 ft / 0 m 0 ft / 0 m
36 75 ft / 23 m 5,015 ft / 1,528 m 1.69° 5.85° Asphalt 0 ft / 0 m 0 ft / 0 m

Map

Weather


0- 5 10 15 20 25 30 35+ Temperature / ° C

Clouds and Precipitation
Forecast for 2017-12-15 12:00 UTC. Updated an hour ago

Ground ~20,000 ft ~40,000 ft Winds

METAR

KBGF 151035Z AUTO 32003KT 10SM OVC028 M03/M06 A3007 RMK

TAF

Not found

Frequencies

Recorded 121.67 MHz AWOS 3
Unicom 122.80 MHz CTAF/UNICOM
Warning: Do not use this data for real-world aviation or navigation. No guarantee of current accuracy is given.